Time;durP1;ratioP1;P1;durP2;ratioP2;P2;SDS_P1;SDS_P2;PMS_P1;PMS_P2;Temp;Humidity;BMP_temperature;BMP_pressure;BME280_temperature;BME280_humidity;BME280_pressure;Samples;Min_cycle;Max_cycle;Signal;HPM_P1;HPM_P2
2021/12/28 00:01:10;;;;;;;86.57;44.00;;;;;;;;;;5057296;28;20045;-53
2021/12/28 00:03:37;;;;;;;92.60;43.65;;;;;;;;;;5049091;28;20094;-50
2021/12/28 00:06:05;;;;;;;89.65;43.25;;;;;;;;;;5060597;28;20033;-53
2021/12/28 00:08:31;;;;;;;88.38;41.83;;;;;;;;;;5051908;28;20106;-53
2021/12/28 00:10:57;;;;;;;87.45;42.72;;;;;;;;;;5056527;28;20047;-55
2021/12/28 00:13:23;;;;;;;91.35;43.63;;;;;;;;;;5056137;28;20037;-59
2021/12/28 00:18:21;;;;;;;91.50;43.38;;;;;;;;;;5059810;28;20048;-54
2021/12/28 00:20:51;;;;;;;89.63;42.35;;;;;;;;;;5051935;28;20417;-56
2021/12/28 00:23:20;;;;;;;80.75;39.42;;;;;;;;;;5058559;28;20041;-56
2021/12/28 00:25:47;;;;;;;88.57;42.40;;;;;;;;;;5054620;28;20029;-59
2021/12/28 00:28:13;;;;;;;83.97;40.45;;;;;;;;;;5053225;28;20530;-53
2021/12/28 00:30:39;;;;;;;87.03;41.78;;;;;;;;;;5058428;28;20059;-54
2021/12/28 00:33:06;;;;;;;85.43;43.08;;;;;;;;;;5051426;28;20048;-53
2021/12/28 00:35:37;;;;;;;92.70;45.55;;;;;;;;;;5058986;28;20101;-53
2021/12/28 00:38:04;;;;;;;93.57;43.60;;;;;;;;;;5054367;28;20044;-55
2021/12/28 00:40:31;;;;;;;93.25;44.08;;;;;;;;;;5049528;28;20560;-56
2021/12/28 00:42:57;;;;;;;86.53;41.05;;;;;;;;;;5057600;28;20039;-55
2021/12/28 00:45:23;;;;;;;88.35;42.00;;;;;;;;;;5050772;28;20045;-53
2021/12/28 00:47:49;;;;;;;96.10;45.45;;;;;;;;;;5057865;28;20133;-55
2021/12/28 00:50:16;;;;;;;89.78;43.72;;;;;;;;;;5053854;28;20536;-56
2021/12/28 00:52:42;;;;;;;95.93;43.17;;;;;;;;;;5051884;28;20036;-55
2021/12/28 00:55:09;;;;;;;87.18;43.13;;;;;;;;;;5056479;28;20037;-58
2021/12/28 00:57:35;;;;;;;96.18;45.70;;;;;;;;;;5049563;28;20037;-53
2021/12/28 01:00:03;;;;;;;87.93;42.00;;;;;;;;;;5057791;28;20066;-54
2021/12/28 01:02:29;;;;;;;91.07;45.20;;;;;;;;;;5052934;28;20065;-58
2021/12/28 01:04:55;;;;;;;103.82;47.53;;;;;;;;;;5053209;28;20119;-54
2021/12/28 01:07:20;;;;;;;94.05;47.97;;;;;;;;;;5056865;28;20629;-56
2021/12/28 01:09:46;;;;;;;93.22;44.35;;;;;;;;;;5050730;28;20231;-58
2021/12/28 01:12:12;;;;;;;95.22;47.08;;;;;;;;;;5057656;28;20037;-58
2021/12/28 01:14:38;;;;;;;92.28;45.50;;;;;;;;;;5052833;28;20395;-55
2021/12/28 01:17:05;;;;;;;95.20;44.63;;;;;;;;;;5053388;28;20079;-56
2021/12/28 01:19:31;;;;;;;97.80;43.50;;;;;;;;;;5056101;28;20044;-52
2021/12/28 01:21:57;;;;;;;90.90;43.95;;;;;;;;;;5051895;28;20120;-56
2021/12/28 01:24:24;;;;;;;95.15;45.88;;;;;;;;;;5057157;28;20059;-53
2021/12/28 01:26:50;;;;;;;97.15;44.65;;;;;;;;;;5052115;28;20045;-57
2021/12/28 01:29:15;;;;;;;96.38;45.80;;;;;;;;;;5054975;28;20063;-56
2021/12/28 01:31:41;;;;;;;96.65;45.20;;;;;;;;;;5055972;28;20500;-49
2021/12/28 01:34:08;;;;;;;91.85;45.83;;;;;;;;;;5048445;28;20114;-55
2021/12/28 01:36:34;;;;;;;92.47;44.42;;;;;;;;;;5056789;28;20047;-54
2021/12/28 01:39:00;;;;;;;92.85;43.97;;;;;;;;;;5052148;28;20037;-52
2021/12/28 01:41:26;;;;;;;94.63;44.10;;;;;;;;;;5053025;28;20094;-54
2021/12/28 01:43:56;;;;;;;98.70;46.03;;;;;;;;;;5055073;28;20048;-52
2021/12/28 01:46:21;;;;;;;92.60;43.88;;;;;;;;;;5048360;28;20055;-55
2021/12/28 01:48:47;;;;;;;89.22;42.78;;;;;;;;;;5057408;28;20474;-53
2021/12/28 01:51:20;;;;;;;88.07;41.92;;;;;;;;;;5051612;28;20053;-52
2021/12/28 01:53:47;;;;;;;95.00;44.67;;;;;;;;;;5054204;28;20136;-56
2021/12/28 01:56:15;;;;;;;94.50;46.08;;;;;;;;;;5055701;28;20393;-55
2021/12/28 01:58:42;;;;;;;101.28;46.30;;;;;;;;;;5048563;28;20500;-56
2021/12/28 02:01:08;;;;;;;100.45;44.97;;;;;;;;;;5059399;28;20059;-52
2021/12/28 02:03:35;;;;;;;97.75;42.78;;;;;;;;;;5050593;28;20465;-54
2021/12/28 02:06:01;;;;;;;99.88;45.50;;;;;;;;;;5057494;28;20033;-52
2021/12/28 02:08:27;;;;;;;87.55;41.40;;;;;;;;;;5054776;28;20041;-55
2021/12/28 02:10:54;;;;;;;101.18;46.25;;;;;;;;;;5050148;28;20184;-51
2021/12/28 02:13:21;;;;;;;90.82;42.60;;;;;;;;;;5056597;28;20499;-53
2021/12/28 02:15:47;;;;;;;96.32;47.22;;;;;;;;;;5050004;28;20029;-54
2021/12/28 02:18:15;;;;;;;101.63;44.10;;;;;;;;;;5053642;28;20090;-50
2021/12/28 02:20:42;;;;;;;98.35;44.42;;;;;;;;;;5053742;28;20041;-52
2021/12/28 02:23:07;;;;;;;99.57;44.63;;;;;;;;;;5049831;28;20452;-52
2021/12/28 02:25:35;;;;;;;99.72;45.00;;;;;;;;;;5055619;28;20136;-53
2021/12/28 02:28:02;;;;;;;86.22;42.28;;;;;;;;;;5049950;28;20462;-51
2021/12/28 02:30:28;;;;;;;92.97;45.13;;;;;;;;;;5052094;28;20445;-53
2021/12/28 02:32:53;;;;;;;97.57;46.17;;;;;;;;;;5053392;28;20641;-53
2021/12/28 02:35:23;;;;;;;97.75;46.97;;;;;;;;;;5050336;28;20716;-54
2021/12/28 02:37:49;;;;;;;99.88;45.38;;;;;;;;;;5046267;28;20495;-50
2021/12/28 02:40:19;;;;;;;97.10;45.03;;;;;;;;;;5053509;28;20083;-51
2021/12/28 02:42:45;;;;;;;100.07;46.20;;;;;;;;;;5059948;28;20152;-51
2021/12/28 02:45:14;;;;;;;96.53;46.58;;;;;;;;;;5055969;28;20615;-54
2021/12/28 02:47:42;;;;;;;101.03;46.30;;;;;;;;;;5054019;28;20043;-55
2021/12/28 02:50:15;;;;;;;100.53;46.60;;;;;;;;;;5060952;28;20051;-57
2021/12/28 02:52:41;;;;;;;95.45;46.15;;;;;;;;;;5052285;28;20485;-52
2021/12/28 02:55:12;;;;;;;99.47;44.28;;;;;;;;;;5060566;28;20098;-52
2021/12/28 02:57:38;;;;;;;100.30;46.13;;;;;;;;;;5055341;28;20507;-54
2021/12/28 03:00:06;;;;;;;96.80;45.30;;;;;;;;;;5056742;28;20127;-52
2021/12/28 03:02:31;;;;;;;98.07;44.83;;;;;;;;;;5059081;28;20573;-52
2021/12/28 03:04:57;;;;;;;102.93;46.50;;;;;;;;;;5052316;28;20044;-55
2021/12/28 03:07:23;;;;;;;95.32;45.22;;;;;;;;;;5059585;28;20138;-53
2021/12/28 03:09:49;;;;;;;101.25;47.03;;;;;;;;;;5054827;28;20733;-52
2021/12/28 03:12:15;;;;;;;96.82;45.50;;;;;;;;;;5054873;28;20069;-53
2021/12/28 03:14:40;;;;;;;99.63;46.88;;;;;;;;;;5059105;28;20075;-53
2021/12/28 03:17:06;;;;;;;93.28;43.17;;;;;;;;;;5051804;28;20110;-52
2021/12/28 03:19:32;;;;;;;98.25;44.47;;;;;;;;;;5059407;28;20076;-55
2021/12/28 03:21:59;;;;;;;98.35;46.67;;;;;;;;;;5054917;28;20523;-50
2021/12/28 03:24:25;;;;;;;95.32;44.13;;;;;;;;;;5053739;28;20305;-54
2021/12/28 03:26:51;;;;;;;96.32;44.90;;;;;;;;;;5058401;28;20056;-52
2021/12/28 03:29:17;;;;;;;95.63;43.47;;;;;;;;;;5052024;28;20111;-56
2021/12/28 03:31:43;;;;;;;102.90;44.53;;;;;;;;;;5060814;28;20112;-51
2021/12/28 03:34:08;;;;;;;103.57;44.08;;;;;;;;;;5054823;28;20392;-55
2021/12/28 03:36:34;;;;;;;101.20;46.42;;;;;;;;;;5054965;28;20094;-52
2021/12/28 03:39:01;;;;;;;102.07;46.78;;;;;;;;;;5058369;28;20039;-53
2021/12/28 03:41:27;;;;;;;93.75;46.08;;;;;;;;;;5051422;28;20068;-53
2021/12/28 03:43:55;;;;;;;96.70;45.42;;;;;;;;;;5061487;28;20037;-51
2021/12/28 03:46:23;;;;;;;90.85;44.88;;;;;;;;;;5055049;28;20040;-55
2021/12/28 03:48:49;;;;;;;104.80;46.90;;;;;;;;;;5053565;28;20506;-56
2021/12/28 03:51:15;;;;;;;98.63;43.97;;;;;;;;;;5058765;28;20411;-54
2021/12/28 03:53:41;;;;;;;99.68;48.47;;;;;;;;;;5051066;28;20194;-51
2021/12/28 03:56:08;;;;;;;101.63;45.42;;;;;;;;;;5059128;28;20044;-53
2021/12/28 03:58:35;;;;;;;98.95;47.55;;;;;;;;;;5055521;28;20037;-47
2021/12/28 04:01:03;;;;;;;103.70;47.47;;;;;;;;;;5054913;28;20036;-52
2021/12/28 04:03:29;;;;;;;102.68;46.95;;;;;;;;;;5057224;28;20040;-54
2021/12/28 04:05:55;;;;;;;96.65;46.28;;;;;;;;;;5052886;28;20040;-51
2021/12/28 04:08:22;;;;;;;101.40;47.20;;;;;;;;;;5057238;28;20062;-53
2021/12/28 04:11:13;;;;;;;100.07;45.63;;;;;;;;;;5053135;28;20069;-50
2021/12/28 04:13:39;;;;;;;109.18;46.42;;;;;;;;;;5057210;28;20033;-56
2021/12/28 04:16:04;;;;;;;95.80;46.05;;;;;;;;;;5056937;28;20415;-55
2021/12/28 04:18:30;;;;;;;90.78;41.60;;;;;;;;;;5052147;28;20083;-53
2021/12/28 04:20:56;;;;;;;107.88;47.35;;;;;;;;;;5059987;28;20043;-50
2021/12/28 04:23:21;;;;;;;103.28;45.22;;;;;;;;;;5052415;28;20460;-49
2021/12/28 04:25:47;;;;;;;110.60;48.40;;;;;;;;;;5058692;28;20091;-53
2021/12/28 04:28:13;;;;;;;105.60;47.90;;;;;;;;;;5055549;28;20134;-55
2021/12/28 04:30:38;;;;;;;105.95;47.92;;;;;;;;;;5052065;28;20126;-55
2021/12/28 04:33:04;;;;;;;105.30;48.90;;;;;;;;;;5059232;28;20135;-55
2021/12/28 04:35:30;;;;;;;114.15;49.55;;;;;;;;;;5051368;28;20130;-53
2021/12/28 04:37:56;;;;;;;101.07;49.05;;;;;;;;;;5055458;28;20055;-52
2021/12/28 04:40:22;;;;;;;96.75;45.50;;;;;;;;;;5055492;28;20040;-54
2021/12/28 04:42:48;;;;;;;103.93;46.13;;;;;;;;;;5050580;28;20047;-54
2021/12/28 04:45:15;;;;;;;101.28;48.05;;;;;;;;;;5059430;28;20564;-52
2021/12/28 04:47:41;;;;;;;104.00;47.67;;;;;;;;;;5050616;28;20189;-52
2021/12/28 04:50:08;;;;;;;101.57;46.65;;;;;;;;;;5056442;28;20036;-52
2021/12/28 04:52:37;;;;;;;103.53;47.55;;;;;;;;;;5054130;28;20487;-51
2021/12/28 04:55:06;;;;;;;97.97;46.33;;;;;;;;;;5051631;28;20488;-56
2021/12/28 04:57:31;;;;;;;104.65;48.40;;;;;;;;;;5056459;28;20040;-58
2021/12/28 04:59:57;;;;;;;102.57;47.78;;;;;;;;;;5050668;28;20106;-54
2021/12/28 05:02:23;;;;;;;105.60;50.85;;;;;;;;;;5057268;28;20041;-55
2021/12/28 05:04:48;;;;;;;103.53;47.45;;;;;;;;;;5053707;28;20040;-53
2021/12/28 05:07:14;;;;;;;104.55;47.70;;;;;;;;;;5052458;28;20068;-57
2021/12/28 05:09:40;;;;;;;104.70;48.15;;;;;;;;;;5057627;28;20053;-53
2021/12/28 05:12:06;;;;;;;107.93;47.22;;;;;;;;;;5050439;28;20068;-56
2021/12/28 05:14:33;;;;;;;100.82;46.67;;;;;;;;;;5057818;28;20043;-55
2021/12/28 05:16:59;;;;;;;95.45;45.92;;;;;;;;;;5053081;28;20523;-56
2021/12/28 05:19:24;;;;;;;106.65;48.90;;;;;;;;;;5054190;28;20063;-54
2021/12/28 05:21:50;;;;;;;102.35;46.85;;;;;;;;;;5057338;28;20037;-51
2021/12/28 05:24:16;;;;;;;98.82;47.97;;;;;;;;;;5049858;28;20134;-52
2021/12/28 05:26:41;;;;;;;101.47;47.22;;;;;;;;;;5056294;28;20114;-57
2021/12/28 05:29:07;;;;;;;106.32;47.97;;;;;;;;;;5053498;28;20076;-52
2021/12/28 05:31:33;;;;;;;104.32;46.65;;;;;;;;;;5050274;28;20041;-55
2021/12/28 05:33:59;;;;;;;103.90;47.92;;;;;;;;;;5056217;28;20059;-53
2021/12/28 05:36:25;;;;;;;99.43;46.47;;;;;;;;;;5050060;28;20068;-54
2021/12/28 05:38:51;;;;;;;103.35;47.33;;;;;;;;;;5057277;28;20094;-55
2021/12/28 05:41:17;;;;;;;99.38;46.25;;;;;;;;;;5053042;28;20040;-56
2021/12/28 05:43:43;;;;;;;96.57;45.13;;;;;;;;;;5050842;28;20029;-56
2021/12/28 05:46:08;;;;;;;105.22;48.00;;;;;;;;;;5057274;28;20036;-55
2021/12/28 05:48:34;;;;;;;97.63;45.92;;;;;;;;;;5049118;28;20122;-54
2021/12/28 05:51:00;;;;;;;98.28;45.97;;;;;;;;;;5057195;28;20495;-53
2021/12/28 05:53:26;;;;;;;100.20;45.90;;;;;;;;;;5052883;28;20040;-56
2021/12/28 05:55:52;;;;;;;91.78;44.05;;;;;;;;;;5052428;28;20037;-55
2021/12/28 05:58:17;;;;;;;93.97;45.40;;;;;;;;;;5057276;28;20495;-53
2021/12/28 06:00:45;;;;;;;97.95;45.28;;;;;;;;;;5050878;28;20041;-51
2021/12/28 06:03:10;;;;;;;98.53;45.25;;;;;;;;;;5056959;28;20414;-55
2021/12/28 06:05:36;;;;;;;106.43;46.92;;;;;;;;;;5056155;28;20064;-55
2021/12/28 06:08:02;;;;;;;98.85;47.63;;;;;;;;;;5052508;28;20127;-56
2021/12/28 06:10:28;;;;;;;105.10;49.13;;;;;;;;;;5054121;28;20076;-53
2021/12/28 06:12:53;;;;;;;98.90;46.20;;;;;;;;;;5048511;28;20071;-53
2021/12/28 06:15:19;;;;;;;101.50;48.70;;;;;;;;;;5056591;28;20105;-52
2021/12/28 06:17:45;;;;;;;102.07;48.83;;;;;;;;;;5053164;28;20041;-50
2021/12/28 06:20:11;;;;;;;100.88;46.78;;;;;;;;;;5049824;28;20545;-55
2021/12/28 06:22:36;;;;;;;106.20;47.03;;;;;;;;;;5055367;28;20048;-55
2021/12/28 06:25:03;;;;;;;102.35;50.20;;;;;;;;;;5048872;28;20036;-53
2021/12/28 06:27:29;;;;;;;102.32;48.40;;;;;;;;;;5055500;28;20040;-51
2021/12/28 06:29:54;;;;;;;107.32;49.08;;;;;;;;;;5052077;28;20060;-53
2021/12/28 06:32:20;;;;;;;114.90;50.70;;;;;;;;;;5052788;28;20040;-50
2021/12/28 06:34:46;;;;;;;98.82;45.30;;;;;;;;;;5056260;28;20057;-51
2021/12/28 06:37:12;;;;;;;102.43;48.65;;;;;;;;;;5048275;28;20048;-51
2021/12/28 06:39:38;;;;;;;103.35;48.33;;;;;;;;;;5057213;28;20075;-53
2021/12/28 06:42:04;;;;;;;100.10;46.40;;;;;;;;;;5052175;28;20511;-47
2021/12/28 06:44:29;;;;;;;101.93;46.35;;;;;;;;;;5053963;28;20061;-54
2021/12/28 06:46:55;;;;;;;97.97;45.08;;;;;;;;;;5055176;28;20060;-52
2021/12/28 06:49:21;;;;;;;107.63;49.47;;;;;;;;;;5051733;28;20092;-53
2021/12/28 06:51:47;;;;;;;104.63;46.08;;;;;;;;;;5054189;28;20071;-52
2021/12/28 06:54:13;;;;;;;99.70;44.90;;;;;;;;;;5049834;28;20037;-50
2021/12/28 06:56:39;;;;;;;101.75;46.72;;;;;;;;;;5054468;28;20053;-51
2021/12/28 06:59:04;;;;;;;103.60;45.58;;;;;;;;;;5050102;28;20407;-49
2021/12/28 07:01:30;;;;;;;101.40;46.35;;;;;;;;;;5052437;28;20045;-49
2021/12/28 07:03:56;;;;;;;109.05;46.28;;;;;;;;;;5054148;28;20068;-48
2021/12/28 07:06:24;;;;;;;97.20;47.42;;;;;;;;;;5050143;28;20580;-46
2021/12/28 07:08:50;;;;;;;97.22;44.70;;;;;;;;;;5048845;28;20477;-48
2021/12/28 07:11:16;;;;;;;100.13;46.40;;;;;;;;;;5048475;28;20786;-47
2021/12/28 07:13:42;;;;;;;99.25;44.22;;;;;;;;;;5053340;28;20547;-48
2021/12/28 07:16:08;;;;;;;97.45;47.08;;;;;;;;;;5052584;28;20068;-49
2021/12/28 07:18:33;;;;;;;97.85;47.13;;;;;;;;;;5050220;28;20162;-52
2021/12/28 07:21:00;;;;;;;99.35;45.83;;;;;;;;;;5053073;28;20392;-47
2021/12/28 07:23:26;;;;;;;102.07;45.65;;;;;;;;;;5050289;28;20037;-51
2021/12/28 07:25:53;;;;;;;104.47;48.30;;;;;;;;;;5056204;28;20467;-48
2021/12/28 07:28:19;;;;;;;108.47;48.10;;;;;;;;;;5056141;28;20041;-47
2021/12/28 07:30:45;;;;;;;104.10;47.17;;;;;;;;;;5055369;28;20028;-50
2021/12/28 07:33:11;;;;;;;96.32;44.25;;;;;;;;;;5059277;28;20572;-47
2021/12/28 07:35:37;;;;;;;94.15;44.20;;;;;;;;;;5056160;28;20118;-51
2021/12/28 07:38:02;;;;;;;89.40;45.00;;;;;;;;;;5057431;28;20122;-46
2021/12/28 07:40:29;;;;;;;99.03;48.00;;;;;;;;;;5057405;28;20055;-50
2021/12/28 07:42:55;;;;;;;96.00;45.30;;;;;;;;;;5055851;28;20044;-49
2021/12/28 07:45:20;;;;;;;92.07;41.92;;;;;;;;;;5055597;28;20044;-47
2021/12/28 07:47:46;;;;;;;100.80;48.08;;;;;;;;;;5052636;28;20127;-49
2021/12/28 07:50:15;;;;;;;92.07;45.38;;;;;;;;;;5054133;28;20501;-50
2021/12/28 07:52:42;;;;;;;98.50;44.90;;;;;;;;;;5053618;28;20037;-48
2021/12/28 07:55:09;;;;;;;97.22;46.38;;;;;;;;;;5056787;28;20047;-47
2021/12/28 07:57:35;;;;;;;91.30;42.50;;;;;;;;;;5054673;28;20601;-49
2021/12/28 08:00:07;;;;;;;102.10;48.00;;;;;;;;;;5054491;28;20066;-48
2021/12/28 08:02:32;;;;;;;96.75;47.72;;;;;;;;;;5057045;28;20109;-45
2021/12/28 08:04:58;;;;;;;98.47;44.38;;;;;;;;;;5058191;28;20544;-48
2021/12/28 08:07:24;;;;;;;96.13;44.00;;;;;;;;;;5055878;28;20073;-48
2021/12/28 08:09:49;;;;;;;101.40;45.83;;;;;;;;;;5058184;28;20500;-45
2021/12/28 08:12:15;;;;;;;98.05;46.28;;;;;;;;;;5054587;28;20068;-45
2021/12/28 08:14:42;;;;;;;104.20;44.03;;;;;;;;;;5057611;28;20072;-44
2021/12/28 08:17:07;;;;;;;103.35;47.72;;;;;;;;;;5055931;28;20579;-46
2021/12/28 08:19:33;;;;;;;102.15;48.58;;;;;;;;;;5053336;28;20068;-47
2021/12/28 08:21:59;;;;;;;101.43;46.08;;;;;;;;;;5056717;28;20048;-45
2021/12/28 08:24:25;;;;;;;101.72;47.22;;;;;;;;;;5053271;28;20045;-49
2021/12/28 08:26:51;;;;;;;98.60;46.58;;;;;;;;;;5057286;28;20120;-45
2021/12/28 08:29:16;;;;;;;106.13;48.33;;;;;;;;;;5055431;28;20044;-49
2021/12/28 08:31:42;;;;;;;96.38;47.63;;;;;;;;;;5054064;28;20060;-48
2021/12/28 08:34:08;;;;;;;105.95;48.72;;;;;;;;;;5057892;28;20066;-50
2021/12/28 08:36:33;;;;;;;100.80;47.22;;;;;;;;;;5050374;28;20044;-48
2021/12/28 08:38:59;;;;;;;107.85;48.53;;;;;;;;;;5056241;28;20060;-48
2021/12/28 08:41:25;;;;;;;96.97;47.25;;;;;;;;;;5055475;28;20072;-47
2021/12/28 08:43:50;;;;;;;94.68;46.88;;;;;;;;;;5050359;28;20063;-47
2021/12/28 08:46:16;;;;;;;95.00;45.90;;;;;;;;;;5053449;28;20139;-47
2021/12/28 08:48:42;;;;;;;103.38;47.20;;;;;;;;;;5054129;28;20545;-49
2021/12/28 08:51:08;;;;;;;94.15;45.35;;;;;;;;;;5045566;28;20052;-47
2021/12/28 08:53:34;;;;;;;94.75;44.88;;;;;;;;;;5048664;28;20715;-50
2021/12/28 08:56:00;;;;;;;95.80;44.17;;;;;;;;;;5050867;28;20408;-45
2021/12/28 08:58:26;;;;;;;97.57;45.47;;;;;;;;;;5048336;28;20029;-47
2021/12/28 09:00:51;;;;;;;95.35;44.28;;;;;;;;;;5050707;28;20124;-48
2021/12/28 09:03:17;;;;;;;95.28;43.88;;;;;;;;;;5057090;28;20143;-49
2021/12/28 09:05:43;;;;;;;93.15;44.45;;;;;;;;;;5056876;28;20049;-43
2021/12/28 09:08:13;;;;;;;92.70;42.83;;;;;;;;;;5054013;28;20154;-44
2021/12/28 09:10:39;;;;;;;89.40;41.80;;;;;;;;;;5055666;28;20590;-44
2021/12/28 09:13:07;;;;;;;86.45;42.22;;;;;;;;;;5056551;28;20044;-44
2021/12/28 09:15:35;;;;;;;88.57;41.47;;;;;;;;;;5054558;28;20037;-46
2021/12/28 09:18:01;;;;;;;90.25;43.35;;;;;;;;;;5054278;28;20044;-45
2021/12/28 09:20:26;;;;;;;94.07;42.97;;;;;;;;;;5055609;28;20106;-45
2021/12/28 09:22:53;;;;;;;86.28;39.70;;;;;;;;;;5053141;28;20044;-47
2021/12/28 09:25:19;;;;;;;85.28;40.67;;;;;;;;;;5053172;28;20058;-46
2021/12/28 09:27:46;;;;;;;83.50;41.22;;;;;;;;;;5057770;28;20028;-45
2021/12/28 09:30:13;;;;;;;88.85;42.33;;;;;;;;;;5052500;28;20415;-43
2021/12/28 09:32:39;;;;;;;87.30;42.78;;;;;;;;;;5048939;28;20136;-45
2021/12/28 09:35:05;;;;;;;85.55;40.42;;;;;;;;;;5049613;28;20571;-46
2021/12/28 09:37:33;;;;;;;77.22;38.72;;;;;;;;;;5049418;28;20045;-42
2021/12/28 09:40:00;;;;;;;89.10;41.53;;;;;;;;;;5053305;28;20056;-45
2021/12/28 09:42:26;;;;;;;84.93;40.25;;;;;;;;;;5047872;28;20566;-49
2021/12/28 09:44:52;;;;;;;85.78;39.45;;;;;;;;;;5051612;28;20044;-45
2021/12/28 09:47:19;;;;;;;86.30;40.78;;;;;;;;;;5050660;28;20045;-44
2021/12/28 09:49:45;;;;;;;91.10;42.63;;;;;;;;;;5050724;28;20044;-50
2021/12/28 09:52:12;;;;;;;82.15;39.20;;;;;;;;;;5050975;28;20523;-45
2021/12/28 09:54:38;;;;;;;89.80;40.65;;;;;;;;;;5052033;28;20037;-48
2021/12/28 09:57:04;;;;;;;79.72;39.92;;;;;;;;;;5053539;28;20487;-44
2021/12/28 09:59:30;;;;;;;89.22;40.65;;;;;;;;;;5052886;28;20039;-46
2021/12/28 10:01:58;;;;;;;82.25;39.40;;;;;;;;;;5051137;28;20036;-47
2021/12/28 10:04:24;;;;;;;83.50;39.58;;;;;;;;;;5048170;28;20144;-45
2021/12/28 10:06:50;;;;;;;78.15;39.35;;;;;;;;;;5049959;28;20049;-45
2021/12/28 10:09:18;;;;;;;87.32;42.65;;;;;;;;;;5050090;28;20123;-44
2021/12/28 10:11:49;;;;;;;85.85;41.83;;;;;;;;;;5048833;28;20043;-47
2021/12/28 10:14:17;;;;;;;86.80;38.85;;;;;;;;;;5051515;28;20049;-44
2021/12/28 10:16:55;;;;;;;81.35;39.78;;;;;;;;;;5049768;28;20037;-46
2021/12/28 10:19:38;;;;;;;86.70;41.08;;;;;;;;;;5049233;28;20044;-46
2021/12/28 10:22:25;;;;;;;80.32;37.65;;;;;;;;;;5045851;28;20033;-46
2021/12/28 10:24:54;;;;;;;82.50;39.70;;;;;;;;;;5048398;28;20048;-44
2021/12/28 10:27:22;;;;;;;86.63;40.03;;;;;;;;;;5052000;28;20076;-45
2021/12/28 10:29:48;;;;;;;74.55;37.30;;;;;;;;;;5048077;28;20037;-43
2021/12/28 10:32:20;;;;;;;83.88;38.90;;;;;;;;;;5051477;28;20148;-42
2021/12/28 10:34:51;;;;;;;82.07;36.70;;;;;;;;;;5052283;28;20045;-43
2021/12/28 10:37:23;;;;;;;77.32;38.20;;;;;;;;;;5053015;28;20119;-43
2021/12/28 10:39:53;;;;;;;76.03;36.85;;;;;;;;;;5053922;28;20538;-47
2021/12/28 10:42:37;;;;;;;86.47;39.25;;;;;;;;;;5052644;28;20102;-43
2021/12/28 10:45:05;;;;;;;78.88;38.08;;;;;;;;;;5052450;28;20538;-42
2021/12/28 10:47:31;;;;;;;74.30;37.47;;;;;;;;;;5053809;28;20041;-40
2021/12/28 10:49:59;;;;;;;82.90;39.38;;;;;;;;;;5052968;28;20074;-44
2021/12/28 10:52:33;;;;;;;73.07;35.25;;;;;;;;;;5052540;28;20041;-46
2021/12/28 10:55:24;;;;;;;84.63;38.72;;;;;;;;;;5053929;28;20074;-42
2021/12/28 10:57:51;;;;;;;80.18;37.72;;;;;;;;;;5053711;28;20070;-45
2021/12/28 11:00:37;;;;;;;74.55;36.78;;;;;;;;;;5056309;28;20033;-42
2021/12/28 11:03:12;;;;;;;76.25;36.72;;;;;;;;;;5055134;28;20653;-43
2021/12/28 11:05:38;;;;;;;81.30;36.75;;;;;;;;;;5055569;28;20059;-43
2021/12/28 11:08:07;;;;;;;75.82;38.28;;;;;;;;;;5052865;28;20045;-42
2021/12/28 11:10:34;;;;;;;75.72;36.88;;;;;;;;;;5057272;28;20109;-45
2021/12/28 11:12:59;;;;;;;82.43;38.53;;;;;;;;;;5055375;28;20033;-44
2021/12/28 11:15:26;;;;;;;70.18;36.00;;;;;;;;;;5055844;28;20400;-42
2021/12/28 11:17:52;;;;;;;74.05;37.40;;;;;;;;;;5058347;28;20971;-44
2021/12/28 11:20:31;;;;;;;77.07;39.30;;;;;;;;;;5054964;28;20036;-47
2021/12/28 11:23:11;;;;;;;79.95;38.22;;;;;;;;;;5058024;28;20059;-49
2021/12/28 11:25:37;;;;;;;77.95;37.55;;;;;;;;;;5057676;28;20036;-49
2021/12/28 11:28:23;;;;;;;71.30;35.78;;;;;;;;;;5055158;28;20134;-48
2021/12/28 11:31:03;;;;;;;69.67;34.13;;;;;;;;;;5057052;28;20080;-48
2021/12/28 11:33:48;;;;;;;74.72;36.38;;;;;;;;;;5053835;28;20810;-47
2021/12/28 11:36:15;;;;;;;71.35;35.58;;;;;;;;;;5058747;28;20045;-45
2021/12/28 11:38:42;;;;;;;74.55;35.10;;;;;;;;;;5054386;28;20480;-43
2021/12/28 11:41:08;;;;;;;68.72;34.00;;;;;;;;;;5058121;28;20036;-44
2021/12/28 11:43:35;;;;;;;71.47;34.88;;;;;;;;;;5055587;28;20033;-45
2021/12/28 11:46:01;;;;;;;71.78;36.10;;;;;;;;;;5054965;28;20128;-44
2021/12/28 11:48:27;;;;;;;71.60;33.65;;;;;;;;;;5056203;28;20036;-44
2021/12/28 11:50:53;;;;;;;79.47;34.85;;;;;;;;;;5054636;28;20115;-45
2021/12/28 11:53:19;;;;;;;69.20;34.97;;;;;;;;;;5057630;28;20041;-46
2021/12/28 11:55:45;;;;;;;66.28;35.00;;;;;;;;;;5055465;28;20037;-45
2021/12/28 11:58:11;;;;;;;68.85;35.72;;;;;;;;;;5052064;28;20377;-45
2021/12/28 12:00:39;;;;;;;69.10;35.55;;;;;;;;;;5055603;28;20093;-42
2021/12/28 12:03:06;;;;;;;67.72;33.15;;;;;;;;;;5053812;28;20048;-49
2021/12/28 12:05:33;;;;;;;71.32;35.63;;;;;;;;;;5056297;28;20045;-42
2021/12/28 12:08:12;;;;;;;71.22;36.00;;;;;;;;;;5053648;28;20041;-49
2021/12/28 12:10:40;;;;;;;72.85;34.60;;;;;;;;;;5048443;28;20409;-43
2021/12/28 12:13:27;;;;;;;72.00;34.85;;;;;;;;;;5056803;28;20040;-48
2021/12/28 12:16:01;;;;;;;69.28;32.78;;;;;;;;;;5058004;28;20076;-48
2021/12/28 12:18:30;;;;;;;69.72;33.67;;;;;;;;;;5057398;28;20045;-48
2021/12/28 12:20:59;;;;;;;66.53;34.00;;;;;;;;;;5054894;28;20040;-45
2021/12/28 12:23:27;;;;;;;67.38;33.35;;;;;;;;;;5054524;28;20409;-44
2021/12/28 12:25:59;;;;;;;67.60;31.10;;;;;;;;;;5057011;28;20079;-47
2021/12/28 12:28:38;;;;;;;73.82;33.20;;;;;;;;;;5053606;28;20074;-44
2021/12/28 12:31:07;;;;;;;62.05;32.15;;;;;;;;;;5056495;28;20045;-47
2021/12/28 12:33:42;;;;;;;64.00;30.30;;;;;;;;;;5053814;28;20520;-47
2021/12/28 12:36:16;;;;;;;58.40;30.15;;;;;;;;;;5053541;28;20442;-46
2021/12/28 12:38:42;;;;;;;65.80;32.08;;;;;;;;;;5053990;28;20504;-43
2021/12/28 12:41:20;;;;;;;61.90;32.65;;;;;;;;;;5052975;28;20112;-48
2021/12/28 12:43:47;;;;;;;61.30;31.00;;;;;;;;;;5055881;28;20123;-49
2021/12/28 12:46:22;;;;;;;64.15;32.22;;;;;;;;;;5054239;28;20519;-43
2021/12/28 12:48:50;;;;;;;63.75;32.00;;;;;;;;;;5053245;28;20407;-45
2021/12/28 12:51:22;;;;;;;62.92;32.33;;;;;;;;;;5053438;28;20044;-47
2021/12/28 12:53:50;;;;;;;69.90;32.58;;;;;;;;;;5056016;28;20139;-45
2021/12/28 12:56:24;;;;;;;59.58;31.58;;;;;;;;;;5054971;28;20557;-43
2021/12/28 12:58:51;;;;;;;67.55;31.90;;;;;;;;;;5051573;28;20037;-45
2021/12/28 13:01:18;;;;;;;62.25;31.80;;;;;;;;;;5056596;28;20033;-46
2021/12/28 13:03:44;;;;;;;67.00;32.63;;;;;;;;;;5050906;28;20040;-45
2021/12/28 13:06:10;;;;;;;65.20;32.50;;;;;;;;;;5035892;28;20041;-44
2021/12/28 13:08:35;;;;;;;60.67;29.73;;;;;;;;;;5055185;28;21261;-45
2021/12/28 13:11:01;;;;;;;56.85;30.08;;;;;;;;;;5052681;28;20048;-45
2021/12/28 13:13:27;;;;;;;60.22;30.52;;;;;;;;;;5058650;28;20448;-44
2021/12/28 13:15:52;;;;;;;60.63;31.02;;;;;;;;;;5055271;28;20060;-43
2021/12/28 13:18:19;;;;;;;60.30;30.42;;;;;;;;;;5051823;28;20657;-41
2021/12/28 13:20:47;;;;;;;59.60;31.00;;;;;;;;;;5054018;28;20033;-47
2021/12/28 13:23:13;;;;;;;57.03;29.13;;;;;;;;;;5053204;28;20045;-46
2021/12/28 13:25:47;;;;;;;58.47;31.70;;;;;;;;;;5049561;28;20460;-43
2021/12/28 13:28:19;;;;;;;61.00;30.83;;;;;;;;;;5054318;28;20124;-44
2021/12/28 13:30:45;;;;;;;57.95;30.63;;;;;;;;;;5049180;28;20041;-43
2021/12/28 13:33:22;;;;;;;58.20;30.80;;;;;;;;;;5049459;28;20056;-44
2021/12/28 13:35:53;;;;;;;54.97;29.10;;;;;;;;;;5051425;28;20044;-41
2021/12/28 13:38:19;;;;;;;59.10;30.55;;;;;;;;;;5048569;28;20048;-46
2021/12/28 13:40:50;;;;;;;59.47;30.45;;;;;;;;;;5050932;28;20044;-43
2021/12/28 13:43:19;;;;;;;57.72;28.17;;;;;;;;;;5049802;28;20040;-45
2021/12/28 13:45:58;;;;;;;58.88;28.95;;;;;;;;;;5052781;28;20044;-45
2021/12/28 13:48:28;;;;;;;59.63;30.33;;;;;;;;;;5053136;28;20064;-46
2021/12/28 13:51:00;;;;;;;59.85;30.08;;;;;;;;;;5051252;28;20059;-45
2021/12/28 13:53:28;;;;;;;57.50;29.58;;;;;;;;;;5052310;28;20098;-42
2021/12/28 13:55:59;;;;;;;65.90;30.92;;;;;;;;;;5051770;28;20118;-43
2021/12/28 13:58:29;;;;;;;54.08;28.05;;;;;;;;;;5050723;28;20158;-42
2021/12/28 14:00:57;;;;;;;55.50;28.80;;;;;;;;;;5056162;28;20041;-42
2021/12/28 14:03:23;;;;;;;57.05;30.13;;;;;;;;;;5047780;28;20040;-48
2021/12/28 14:05:50;;;;;;;54.10;28.67;;;;;;;;;;5055577;28;20412;-40
2021/12/28 14:08:17;;;;;;;48.97;26.60;;;;;;;;;;5047275;28;20053;-42
2021/12/28 14:10:43;;;;;;;55.70;27.88;;;;;;;;;;5049241;28;20064;-46
2021/12/28 14:13:11;;;;;;;55.65;28.55;;;;;;;;;;5049921;28;20045;-45
2021/12/28 14:15:49;;;;;;;53.80;27.60;;;;;;;;;;5049072;28;20045;-51
2021/12/28 14:18:22;;;;;;;58.83;28.58;;;;;;;;;;5051312;28;20048;-40